createdAt,value
2018-06-25T00:00:07.436Z,90.10
2018-06-25T00:02:42.141Z,89.50
2018-06-25T00:09:49.844Z,89.60
2018-06-25T00:12:30.924Z,90.40
2018-06-25T00:15:01.496Z,90.20
2018-06-25T00:17:36.999Z,89.30
2018-06-25T00:20:11.688Z,90.00
2018-06-25T00:22:42.333Z,89.20
2018-06-25T00:25:14.444Z,88.90
2018-06-25T00:27:45.767Z,89.90
2018-06-25T00:30:19.848Z,90.50
2018-06-25T00:32:50.612Z,90.50
2018-06-25T00:35:56.429Z,90.20
2018-06-25T00:38:29.324Z,89.60
2018-06-25T00:41:04.837Z,90.60
2018-06-25T00:43:36.283Z,90.10
2018-06-25T00:46:36.940Z,89.00
2018-06-25T00:49:07.968Z,89.60
2018-06-25T00:51:46.165Z,89.40
2018-06-25T00:54:19.455Z,89.10
2018-06-25T00:56:50.370Z,88.70
2018-06-25T01:05:25.493Z,89.00
2018-06-25T01:08:06.413Z,89.60
2018-06-25T01:11:48.314Z,87.70
2018-06-25T01:14:47.596Z,89.30
2018-06-25T01:18:05.284Z,88.70
2018-06-25T01:21:19.627Z,89.20
2018-06-25T01:23:53.237Z,90.40
2018-06-25T01:31:29.163Z,89.90
2018-06-25T01:34:01.057Z,89.20
2018-06-25T01:36:32.919Z,87.80
2018-06-25T01:39:06.937Z,86.70
2018-06-25T01:41:37.889Z,86.00
2018-06-25T01:44:08.089Z,88.70
2018-06-25T01:46:40.234Z,88.60
2018-06-25T01:49:12.220Z,88.60
2018-06-25T01:52:20.820Z,88.50
2018-06-25T01:54:51.049Z,86.10
2018-06-25T01:57:23.239Z,86.70
2018-06-25T02:00:00.152Z,85.50
2018-06-25T02:02:30.916Z,85.20
2018-06-25T02:05:03.486Z,85.80
2018-06-25T02:07:34.596Z,86.40
2018-06-25T02:10:06.360Z,86.90
2018-06-25T02:12:39.765Z,86.20
2018-06-25T02:15:11.404Z,87.70
2018-06-25T02:17:55.537Z,88.00
2018-06-25T02:20:26.129Z,87.10
2018-06-25T02:23:00.183Z,85.70
2018-06-25T02:26:10.377Z,87.20
2018-06-25T02:28:42.553Z,87.90
2018-06-25T02:31:27.933Z,88.20
2018-06-25T03:19:23.580Z,88.90
2018-06-25T03:24:53.576Z,90.80
2018-06-25T03:28:05.239Z,90.10
2018-06-25T03:31:04.720Z,91.30
2018-06-25T03:33:46.288Z,91.20
2018-06-25T03:36:17.508Z,90.70
2018-06-25T03:39:40.784Z,91.10
2018-06-25T03:48:06.401Z,90.80
2018-06-25T03:50:47.363Z,90.40
2018-06-25T03:53:21.903Z,90.40
2018-06-25T03:55:52.439Z,90.80
2018-06-25T03:58:31.131Z,90.60
2018-06-25T04:07:02.653Z,90.30
2018-06-25T04:09:40.179Z,89.90
2018-06-25T04:12:16.747Z,88.70
2018-06-25T04:23:15.961Z,87.70
2018-06-25T04:25:48.324Z,88.30
2018-06-25T04:28:21.299Z,89.40
2018-06-25T04:30:52.745Z,89.90
2018-06-25T04:33:30.881Z,88.40
2018-06-25T04:36:06.497Z,89.60
2018-06-25T04:41:58.099Z,87.50
2018-06-25T04:44:31.616Z,87.80
2018-06-25T04:47:08.233Z,90.70
2018-06-25T04:49:46.044Z,90.30
2018-06-25T04:52:18.973Z,89.70
2018-06-25T04:54:57.316Z,89.60
2018-06-25T04:57:29.968Z,89.00
2018-06-25T05:00:01.844Z,89.50
2018-06-25T05:02:36.504Z,88.80
2018-06-25T05:05:08.364Z,88.00
2018-06-25T05:10:10.669Z,87.00
2018-06-25T05:29:23.130Z,87.00
2018-06-25T05:33:29.665Z,89.30
2018-06-25T05:36:00.484Z,90.50
2018-06-25T05:41:20.180Z,89.70
2018-06-25T05:43:52.348Z,90.00
2018-06-25T05:48:59.226Z,91.20
2018-06-25T05:51:30.485Z,92.50
2018-06-25T05:54:04.654Z,93.00
2018-06-25T06:00:43.799Z,94.40
2018-06-25T06:05:30.649Z,94.80
2018-06-25T06:08:01.521Z,95.60
2018-06-25T06:10:33.781Z,94.80
2018-06-25T06:13:08.064Z,94.30
2018-06-25T06:15:40.505Z,93.30
2018-06-25T06:18:16.580Z,93.00
2018-06-25T06:20:48.822Z,92.50
2018-06-25T06:26:59.931Z,92.00
2018-06-25T06:29:31.965Z,92.80
2018-06-25T06:32:09.565Z,92.80
2018-06-25T06:34:44.476Z,92.30
2018-06-25T06:37:16.961Z,93.60
2018-06-25T06:40:00.375Z,93.80
2018-06-25T06:42:56.269Z,94.10
2018-06-25T06:45:30.303Z,94.60
2018-06-25T06:50:37.900Z,94.70
2018-06-25T06:53:09.396Z,94.60
2018-06-25T06:55:43.941Z,94.10
2018-06-25T07:03:45.881Z,93.60
2018-06-25T07:06:18.107Z,92.20
2018-06-25T07:08:50.720Z,92.10
2018-06-25T07:11:24.299Z,91.50
2018-06-25T07:13:58.240Z,90.30
2018-06-25T07:16:31.304Z,91.00
2018-06-25T07:20:10.630Z,90.00
2018-06-25T07:25:45.403Z,90.80
2018-06-25T07:29:23.553Z,91.20
2018-06-25T07:31:59.394Z,90.60
2018-06-25T07:35:40.488Z,91.10
2018-06-25T07:38:34.531Z,91.50
2018-06-25T07:41:48.141Z,91.40
2018-06-25T07:50:26.602Z,93.30
2018-06-25T08:04:29.010Z,93.30
2018-06-25T08:07:01.135Z,91.60
2018-06-25T08:09:34.610Z,91.50
2018-06-25T08:20:34.555Z,91.00
2018-06-25T08:23:11.466Z,90.80
2018-06-25T08:25:47.344Z,90.40
2018-06-25T08:29:08.323Z,88.90
2018-06-25T08:32:42.023Z,88.20
2018-06-25T08:43:07.651Z,88.50
2018-06-25T08:45:41.023Z,88.90
2018-06-25T08:48:14.361Z,88.30
2018-06-25T08:50:50.646Z,88.20
2018-06-25T08:53:27.441Z,87.60
2018-06-25T08:56:02.199Z,89.30
2018-06-25T08:58:34.259Z,87.40
2018-06-25T09:01:09.096Z,85.20
2018-06-25T09:03:46.629Z,82.50
2018-06-25T09:06:43.473Z,79.00
2018-06-25T09:09:18.941Z,78.30
2018-06-25T09:11:55.891Z,79.60
2018-06-25T09:14:36.610Z,78.50
2018-06-25T09:17:13.713Z,77.40
2018-06-25T09:19:46.270Z,77.80
2018-06-25T09:22:18.661Z,78.20
2018-06-25T09:24:53.787Z,78.30
2018-06-25T09:27:28.682Z,80.30
2018-06-25T09:32:45.178Z,78.50
2018-06-25T09:35:17.166Z,81.00
2018-06-25T09:37:55.007Z,83.40
2018-06-25T09:40:33.024Z,81.90
2018-06-25T09:43:07.253Z,81.20
2018-06-25T09:45:48.228Z,80.70
2018-06-25T09:48:20.678Z,81.80
2018-06-25T09:50:56.671Z,82.70
2018-06-25T09:53:27.697Z,82.90
2018-06-25T09:56:02.243Z,80.90
2018-06-25T09:58:40.965Z,80.90
2018-06-25T10:01:12.813Z,80.50
2018-06-25T10:04:09.582Z,80.60
2018-06-25T10:06:45.928Z,80.10
2018-06-25T10:09:21.884Z,79.60
2018-06-25T10:14:28.261Z,80.50
2018-06-25T10:17:02.874Z,79.80
2018-06-25T10:19:33.878Z,79.80
2018-06-25T10:22:06.785Z,79.10
2018-06-25T10:24:39.462Z,78.90
2018-06-25T10:27:11.136Z,78.20
2018-06-25T10:29:42.598Z,78.00
2018-06-25T10:32:26.631Z,77.70
2018-06-25T10:34:58.816Z,78.00
2018-06-25T10:37:32.695Z,77.00
2018-06-25T10:40:13.785Z,77.70
2018-06-25T10:42:58.732Z,78.00
2018-06-25T10:45:37.467Z,76.90
2018-06-25T10:48:13.843Z,78.10
2018-06-25T10:50:48.046Z,80.50
2018-06-25T10:53:27.309Z,79.90
2018-06-25T10:56:00.511Z,77.00
2018-06-25T10:58:39.141Z,77.60
2018-06-25T11:01:14.891Z,75.80
2018-06-25T11:03:50.981Z,75.30
2018-06-25T11:06:26.572Z,74.40
2018-06-25T11:08:59.095Z,74.40
2018-06-25T11:14:04.052Z,74.60
2018-06-25T11:16:38.368Z,75.90
2018-06-25T11:19:14.520Z,77.40
2018-06-25T11:21:48.758Z,76.70
2018-06-25T11:27:09.786Z,81.50
2018-06-25T11:29:41.449Z,79.30
2018-06-25T11:32:14.722Z,77.90
2018-06-25T11:34:52.610Z,74.90
2018-06-25T11:37:26.809Z,76.80
2018-06-25T11:40:01.189Z,75.30
2018-06-25T11:42:36.303Z,73.70
2018-06-25T11:45:16.977Z,71.10
2018-06-25T11:47:50.716Z,70.00
2018-06-25T11:50:25.793Z,67.90
2018-06-25T11:53:03.595Z,66.40
2018-06-25T11:55:37.872Z,64.30
2018-06-25T11:58:11.466Z,66.70
2018-06-25T12:00:59.364Z,67.40
2018-06-25T12:03:38.088Z,67.00
2018-06-25T12:06:13.238Z,67.90
2018-06-25T12:08:52.487Z,67.50
2018-06-25T12:11:32.214Z,67.80
2018-06-25T12:14:10.242Z,66.20
2018-06-25T12:16:47.709Z,65.80
2018-06-25T12:19:24.582Z,66.10
2018-06-25T12:22:02.441Z,65.60
2018-06-25T12:27:10.525Z,62.10
2018-06-25T12:29:46.427Z,62.60
2018-06-25T12:32:19.458Z,62.60
2018-06-25T12:35:00.154Z,64.20
2018-06-25T12:37:39.769Z,63.70
2018-06-25T12:40:15.752Z,64.50
2018-06-25T12:42:52.014Z,64.60
2018-06-25T12:45:28.678Z,64.80
2018-06-25T12:48:08.774Z,65.70
2018-06-25T12:50:39.495Z,64.90
2018-06-25T12:53:24.532Z,63.70
2018-06-25T12:56:11.750Z,63.60
2018-06-25T12:59:09.466Z,63.10
2018-06-25T13:01:50.846Z,64.40
2018-06-25T13:04:39.450Z,64.30
2018-06-25T13:07:29.133Z,63.70
2018-06-25T13:10:15.679Z,63.10
2018-06-25T13:12:57.021Z,63.90
2018-06-25T13:15:36.636Z,63.50
2018-06-25T13:18:15.994Z,65.00
2018-06-25T13:20:55.281Z,64.40
2018-06-25T13:23:34.431Z,65.90
2018-06-25T13:26:14.549Z,65.60
2018-06-25T13:28:46.369Z,66.90
2018-06-25T13:31:39.535Z,66.60
2018-06-25T13:34:15.818Z,68.40
2018-06-25T13:36:47.377Z,69.70
2018-06-25T13:39:23.343Z,68.50
2018-06-25T13:41:58.322Z,66.70
2018-06-25T13:47:10.374Z,66.80
2018-06-25T13:49:44.503Z,66.80
2018-06-25T13:52:23.726Z,66.80
2018-06-25T13:54:56.709Z,66.50
2018-06-25T13:57:34.292Z,66.70
2018-06-25T14:00:14.083Z,68.10
2018-06-25T14:05:28.153Z,67.40
2018-06-25T14:08:07.162Z,67.10
2018-06-25T14:10:41.437Z,66.60
2018-06-25T14:13:34.119Z,69.20
2018-06-25T14:16:10.187Z,68.90
2018-06-25T14:18:51.854Z,67.60
2018-06-25T14:21:29.873Z,66.70
2018-06-25T14:24:11.696Z,64.80
2018-06-25T14:26:47.097Z,64.10
2018-06-25T14:29:39.528Z,65.00
2018-06-25T14:32:20.528Z,65.20
2018-06-25T14:35:06.091Z,65.50
2018-06-25T14:37:46.165Z,64.50
2018-06-25T14:40:18.419Z,66.30
2018-06-25T14:45:19.353Z,62.70
2018-06-25T14:47:57.702Z,64.40
2018-06-25T14:50:28.593Z,63.00
2018-06-25T14:53:15.668Z,64.40
2018-06-25T14:55:47.781Z,64.30
2018-06-25T14:58:17.821Z,66.40
2018-06-25T15:03:29.378Z,66.10
2018-06-25T15:06:05.076Z,63.60
2018-06-25T15:08:38.284Z,64.80
2018-06-25T15:11:11.679Z,65.30
2018-06-25T15:13:44.389Z,66.10
2018-06-25T15:16:15.977Z,68.10
2018-06-25T15:18:47.439Z,68.40
2018-06-25T15:21:20.863Z,67.30
2018-06-25T15:23:54.534Z,66.70
2018-06-25T15:26:31.186Z,66.10
2018-06-25T15:29:11.835Z,65.70
2018-06-25T15:32:14.416Z,63.20
2018-06-25T15:34:48.726Z,63.00
2018-06-25T15:37:21.157Z,62.70
2018-06-25T15:39:54.457Z,63.00
2018-06-25T15:42:32.519Z,63.60
2018-06-25T15:45:13.820Z,63.50
2018-06-25T15:50:19.393Z,63.90
2018-06-25T15:52:55.962Z,63.90
2018-06-25T15:55:35.077Z,65.00
2018-06-25T15:58:12.091Z,63.40
2018-06-25T16:00:44.834Z,62.40
2018-06-25T16:05:47.768Z,63.10
2018-06-25T16:08:24.235Z,62.00
2018-06-25T16:10:54.881Z,58.70
2018-06-25T16:13:27.565Z,56.90
2018-06-25T16:18:44.167Z,56.90
2018-06-25T16:21:19.837Z,57.40
2018-06-25T16:23:51.949Z,57.50
2018-06-25T16:28:59.565Z,57.60
2018-06-25T16:32:06.341Z,56.80
2018-06-25T16:34:49.779Z,57.20
2018-06-25T16:40:17.913Z,56.40
2018-06-25T16:42:52.493Z,56.30
2018-06-25T16:45:27.029Z,55.60
2018-06-25T16:48:04.952Z,55.70
2018-06-25T16:50:44.860Z,55.30
2018-06-25T16:53:20.091Z,55.00
2018-06-25T16:55:52.935Z,56.20
2018-06-25T16:58:28.466Z,56.10
2018-06-25T17:01:39.263Z,56.50
2018-06-25T17:04:12.445Z,56.20
2018-06-25T17:06:47.396Z,55.20
2018-06-25T17:09:19.472Z,55.60
2018-06-25T17:11:51.693Z,57.10
2018-06-25T17:14:25.776Z,58.00
2018-06-25T17:16:57.456Z,58.10
2018-06-25T17:22:04.288Z,57.10
2018-06-25T17:24:38.375Z,58.20
2018-06-25T17:27:17.942Z,58.70
2018-06-25T17:29:53.367Z,59.60
2018-06-25T17:32:32.780Z,58.20
2018-06-25T17:35:09.277Z,59.60
2018-06-25T17:37:48.482Z,58.30
2018-06-25T17:40:23.798Z,58.40
2018-06-25T17:42:58.097Z,58.00
2018-06-25T17:45:39.829Z,58.50
2018-06-25T17:48:29.665Z,59.00
2018-06-25T17:51:05.545Z,58.20
2018-06-25T17:53:39.332Z,58.00
2018-06-25T17:56:17.759Z,57.90
2018-06-25T17:58:57.778Z,58.80
2018-06-25T18:01:31.106Z,58.70
2018-06-25T18:04:06.445Z,59.20
2018-06-25T18:06:39.157Z,59.10
2018-06-25T18:09:17.500Z,58.40
2018-06-25T18:11:54.632Z,57.80
2018-06-25T18:15:13.693Z,57.10
2018-06-25T18:17:56.673Z,57.00
2018-06-25T18:20:32.591Z,56.80
2018-06-25T18:23:11.660Z,56.70
2018-06-25T18:26:12.074Z,58.30
2018-06-25T18:28:47.215Z,56.80
2018-06-25T18:34:21.998Z,57.00
2018-06-25T18:36:55.653Z,57.90
2018-06-25T18:39:30.619Z,58.30
2018-06-25T18:42:06.458Z,58.60
2018-06-25T18:44:38.707Z,58.60
2018-06-25T18:49:54.046Z,59.20
2018-06-25T18:52:29.473Z,57.30
2018-06-25T18:55:04.071Z,59.60
2018-06-25T18:57:45.022Z,59.90
2018-06-25T19:00:23.448Z,60.90
2018-06-25T19:08:03.014Z,60.90
2018-06-25T19:10:35.049Z,61.80
2018-06-25T19:13:10.265Z,62.00
2018-06-25T19:15:48.631Z,62.10
2018-06-25T19:18:25.806Z,62.40
2018-06-25T19:20:59.099Z,62.70
2018-06-25T19:23:31.812Z,63.00
2018-06-25T19:26:04.977Z,63.30
2018-06-25T19:28:37.602Z,63.40
2018-06-25T19:31:14.371Z,63.80
2018-06-25T19:33:53.594Z,63.80
2018-06-25T19:39:06.603Z,64.30
2018-06-25T19:41:46.260Z,64.30
2018-06-25T19:44:20.248Z,64.80
2018-06-25T19:46:52.354Z,65.00
2018-06-25T19:49:23.785Z,63.80
2018-06-25T19:54:43.298Z,66.70
2018-06-25T19:57:14.747Z,66.90
2018-06-25T19:59:56.949Z,67.00
2018-06-25T20:02:35.795Z,67.20
2018-06-25T20:05:16.966Z,67.30
2018-06-25T20:07:54.776Z,68.50
2018-06-25T20:10:35.472Z,68.00
2018-06-25T20:13:10.474Z,68.40
2018-06-25T20:15:45.819Z,69.80
2018-06-25T20:18:27.338Z,68.80
2018-06-25T20:21:05.717Z,69.50
2018-06-25T20:23:41.624Z,69.80
2018-06-25T20:26:22.194Z,69.50
2018-06-25T20:28:56.384Z,69.10
2018-06-25T20:34:56.545Z,71.60
2018-06-25T20:37:35.728Z,70.50
2018-06-25T20:40:15.225Z,70.60
2018-06-25T20:43:02.936Z,70.50
2018-06-25T20:45:35.620Z,70.50
2018-06-25T20:48:15.431Z,73.10
2018-06-25T20:50:46.454Z,70.50
2018-06-25T20:53:19.914Z,72.10
2018-06-25T20:56:02.483Z,71.30
2018-06-25T20:58:42.590Z,71.10
2018-06-25T21:01:15.648Z,70.70
2018-06-25T21:03:51.753Z,70.40
2018-06-25T21:06:30.694Z,70.10
2018-06-25T21:09:07.429Z,70.20
2018-06-25T21:11:50.673Z,70.30
2018-06-25T21:14:23.490Z,70.20
2018-06-25T21:16:55.930Z,70.50
2018-06-25T21:19:47.534Z,70.30
2018-06-25T21:22:19.622Z,71.30
2018-06-25T21:24:55.877Z,72.10
2018-06-25T21:27:32.679Z,72.40
2018-06-25T21:30:27.348Z,67.40
2018-06-25T21:33:02.590Z,71.30
2018-06-25T21:35:36.256Z,71.40
2018-06-25T21:38:09.610Z,71.60
2018-06-25T21:40:41.848Z,71.30
2018-06-25T21:43:12.772Z,71.20
2018-06-25T21:45:56.938Z,71.40
2018-06-25T21:48:30.259Z,71.40
2018-06-25T21:51:02.961Z,71.40
2018-06-25T21:53:39.218Z,71.10
2018-06-25T21:56:09.830Z,71.10
2018-06-25T21:58:43.941Z,71.20
2018-06-25T22:01:24.963Z,71.20
2018-06-25T22:03:56.861Z,71.30
2018-06-25T22:06:32.731Z,71.20
2018-06-25T22:09:14.460Z,71.30
2018-06-25T22:11:47.895Z,71.20
2018-06-25T22:14:21.218Z,70.80
2018-06-25T22:16:58.050Z,70.80
2018-06-25T22:19:31.541Z,71.30
2018-06-25T22:22:06.978Z,70.90
2018-06-25T22:24:41.017Z,71.30
2018-06-25T22:27:12.843Z,71.10
2018-06-25T22:29:55.518Z,71.00
2018-06-25T22:32:30.000Z,71.40
2018-06-25T22:35:06.999Z,71.60
2018-06-25T22:37:38.687Z,71.20
2018-06-25T22:40:13.750Z,71.40
2018-06-25T22:42:47.786Z,71.10
2018-06-25T22:45:32.055Z,71.50
2018-06-25T22:48:15.120Z,71.50
2018-06-25T22:50:50.903Z,71.60
2018-06-25T22:53:26.558Z,71.30
2018-06-25T22:55:59.397Z,71.60
2018-06-25T22:58:37.603Z,72.10
2018-06-25T23:01:14.190Z,73.70
2018-06-25T23:03:46.288Z,71.60
2018-06-25T23:06:20.185Z,71.40
2018-06-25T23:08:55.883Z,71.60
2018-06-25T23:11:31.589Z,72.10
2018-06-25T23:14:05.990Z,71.80
2018-06-25T23:16:41.696Z,71.40
2018-06-25T23:19:12.270Z,71.20
2018-06-25T23:21:43.467Z,70.80
2018-06-25T23:24:19.802Z,70.10
2018-06-25T23:26:56.492Z,70.90
2018-06-25T23:29:28.686Z,70.70
2018-06-25T23:32:08.510Z,70.60
2018-06-25T23:34:41.623Z,70.10
2018-06-25T23:37:14.636Z,70.20
2018-06-25T23:39:45.594Z,70.30
2018-06-25T23:42:17.446Z,70.20
2018-06-25T23:44:49.677Z,70.50
2018-06-25T23:50:13.818Z,70.50
2018-06-25T23:52:45.007Z,70.40
2018-06-25T23:55:38.598Z,70.30
2018-06-25T23:58:12.473Z,70.30
